createdAt,value
2022-10-21T00:00:23.333Z,9.32
2022-10-21T00:03:21.519Z,6.00
2022-10-21T00:06:18.351Z,8.90
2022-10-21T00:09:15.174Z,7.75
2022-10-21T00:12:12.031Z,7.88
2022-10-21T00:15:10.151Z,5.95
2022-10-21T00:18:06.991Z,8.82
2022-10-21T00:21:22.910Z,7.95
2022-10-21T00:24:19.779Z,7.97
2022-10-21T00:27:16.624Z,8.07
2022-10-21T00:30:13.931Z,9.93
2022-10-21T00:33:12.323Z,8.60
2022-10-21T00:36:15.200Z,5.97
2022-10-21T00:39:12.312Z,8.10
2022-10-21T00:42:17.603Z,7.05
2022-10-21T00:45:24.790Z,6.22
2022-10-21T00:48:45.303Z,8.73
2022-10-21T00:51:43.862Z,6.53
2022-10-21T00:54:42.514Z,7.10
2022-10-21T00:57:39.890Z,11.30
2022-10-21T01:00:37.192Z,11.68
2022-10-21T01:03:35.701Z,11.63
2022-10-21T01:06:34.522Z,8.25
2022-10-21T01:09:32.559Z,9.45
2022-10-21T01:12:51.175Z,9.48
2022-10-21T01:16:29.227Z,11.15
2022-10-21T01:19:47.086Z,7.65
2022-10-21T01:23:14.003Z,5.97
2022-10-21T01:26:59.185Z,7.65
2022-10-21T01:30:11.422Z,7.57
2022-10-21T01:33:54.971Z,8.80
2022-10-21T01:37:08.535Z,7.47
2022-10-21T01:40:19.522Z,7.40
2022-10-21T01:43:45.976Z,7.03
2022-10-21T01:46:55.527Z,19.50
2022-10-21T01:50:11.130Z,11.48
2022-10-21T01:53:12.841Z,7.80
2022-10-21T01:56:12.558Z,7.32
2022-10-21T01:59:11.415Z,11.48
2022-10-21T02:02:09.406Z,11.35
2022-10-21T02:05:22.685Z,11.82
2022-10-21T02:08:20.056Z,8.63
2022-10-21T02:11:18.994Z,9.02
2022-10-21T02:14:25.551Z,11.10
2022-10-21T02:17:23.304Z,11.63
2022-10-21T02:20:24.261Z,9.60
2022-10-21T02:23:46.161Z,9.70
2022-10-21T02:26:43.218Z,9.50
2022-10-21T02:29:44.411Z,8.70
2022-10-21T02:32:51.317Z,7.97
2022-10-21T02:36:08.483Z,8.15
2022-10-21T02:39:35.330Z,9.25
2022-10-21T02:42:38.077Z,7.97
2022-10-21T02:45:35.605Z,9.05
2022-10-21T02:48:38.150Z,8.65
2022-10-21T02:51:35.648Z,7.88
2022-10-21T02:54:32.566Z,10.57
2022-10-21T02:57:29.394Z,7.68
2022-10-21T03:00:30.724Z,7.32
2022-10-21T03:03:30.001Z,10.85
2022-10-21T03:06:26.982Z,7.63
2022-10-21T03:09:23.899Z,8.55
2022-10-21T03:12:20.744Z,10.10
2022-10-21T03:15:17.991Z,12.68
2022-10-21T03:18:14.845Z,8.20
2022-10-21T03:21:11.677Z,9.30
2022-10-21T03:24:15.274Z,9.35
2022-10-21T03:27:22.223Z,13.52
2022-10-21T03:30:19.302Z,11.52
2022-10-21T03:33:16.196Z,9.07
2022-10-21T03:36:13.051Z,9.55
2022-10-21T03:39:11.854Z,10.48
2022-10-21T03:42:08.728Z,10.45
2022-10-21T03:45:06.104Z,12.18
2022-10-21T03:48:03.100Z,10.27
2022-10-21T03:50:59.987Z,8.38
2022-10-21T03:53:56.896Z,11.90
2022-10-21T03:56:54.006Z,10.38
2022-10-21T03:59:50.926Z,10.95
2022-10-21T04:02:47.876Z,8.55
2022-10-21T04:05:44.746Z,9.48
2022-10-21T04:08:41.678Z,11.73
2022-10-21T04:11:38.586Z,10.90
2022-10-21T04:14:35.706Z,9.90
2022-10-21T04:17:32.695Z,10.38
2022-10-21T04:20:29.534Z,7.72
2022-10-21T04:23:26.454Z,12.93
2022-10-21T04:26:23.777Z,10.70
2022-10-21T04:29:21.085Z,10.20
2022-10-21T04:32:17.976Z,7.97
2022-10-21T04:35:14.956Z,9.70
2022-10-21T04:38:11.895Z,11.18
2022-10-21T04:41:08.845Z,14.95
2022-10-21T04:44:06.519Z,10.80
2022-10-21T04:47:03.363Z,9.15
2022-10-21T04:50:00.164Z,10.52
2022-10-21T04:52:57.036Z,10.43
2022-10-21T04:55:54.131Z,10.55
2022-10-21T04:58:51.019Z,11.07
2022-10-21T05:01:47.920Z,10.35
2022-10-21T05:04:44.823Z,12.48
2022-10-21T05:07:41.677Z,12.00
2022-10-21T05:10:38.865Z,12.77
2022-10-21T05:13:35.756Z,10.52
2022-10-21T05:16:32.629Z,10.85
2022-10-21T05:19:31.353Z,8.30
2022-10-21T05:22:28.662Z,10.77
2022-10-21T05:25:25.755Z,9.93
2022-10-21T05:28:23.026Z,13.00
2022-10-21T05:31:19.920Z,13.65
2022-10-21T05:34:16.898Z,14.70
2022-10-21T05:37:13.858Z,13.35
2022-10-21T05:40:11.312Z,10.27
2022-10-21T05:43:08.159Z,12.05
2022-10-21T05:46:05.850Z,11.90
2022-10-21T05:49:02.883Z,10.77
2022-10-21T05:51:59.874Z,14.40
2022-10-21T05:54:56.811Z,11.10
2022-10-21T05:57:53.691Z,13.18
2022-10-21T06:00:54.619Z,9.68
2022-10-21T06:03:51.900Z,16.60
2022-10-21T06:06:48.805Z,12.15
2022-10-21T06:09:45.901Z,13.82
2022-10-21T06:12:43.794Z,16.38
2022-10-21T06:15:40.728Z,16.13
2022-10-21T06:18:38.078Z,12.60
2022-10-21T06:21:35.002Z,19.35
2022-10-21T06:24:33.026Z,14.25
2022-10-21T06:27:29.915Z,17.45
2022-10-21T06:30:26.819Z,19.08
2022-10-21T06:33:26.888Z,21.13
2022-10-21T06:36:24.315Z,20.63
2022-10-21T06:39:21.187Z,14.20
2022-10-21T06:42:18.013Z,15.23
2022-10-21T06:45:14.949Z,17.63
2022-10-21T06:48:13.577Z,15.50
2022-10-21T06:51:18.631Z,15.15
2022-10-21T06:54:15.662Z,12.15
2022-10-21T06:57:12.481Z,18.85
2022-10-21T07:00:11.470Z,22.40
2022-10-21T07:03:08.320Z,24.58
2022-10-21T07:06:05.403Z,32.58
2022-10-21T07:09:03.796Z,28.63
2022-10-21T07:12:01.881Z,32.97
2022-10-21T07:14:59.032Z,35.13
2022-10-21T07:18:00.922Z,28.45
2022-10-21T07:21:09.352Z,23.27
2022-10-21T07:24:06.684Z,25.95
2022-10-21T07:27:03.564Z,21.55
2022-10-21T07:30:00.658Z,18.40
2022-10-21T07:32:57.483Z,19.38
2022-10-21T07:36:18.925Z,18.52
2022-10-21T07:39:17.729Z,17.67
2022-10-21T07:42:14.977Z,14.57
2022-10-21T07:45:11.952Z,18.75
2022-10-21T07:48:10.405Z,17.38
2022-10-21T07:51:12.480Z,16.83
2022-10-21T07:54:09.754Z,13.80
2022-10-21T07:57:06.626Z,11.93
2022-10-21T08:00:05.960Z,13.43
2022-10-21T08:03:02.801Z,8.52
2022-10-21T08:06:00.274Z,9.23
2022-10-21T08:08:57.942Z,12.48
2022-10-21T08:11:55.450Z,12.65
2022-10-21T08:14:52.468Z,12.98
2022-10-21T08:17:49.295Z,14.57
2022-10-21T08:20:47.692Z,10.40
2022-10-21T08:23:44.786Z,13.18
2022-10-21T08:26:41.936Z,15.15
2022-10-21T08:29:40.072Z,22.42
2022-10-21T08:32:37.417Z,28.25
2022-10-21T08:35:34.540Z,14.10
2022-10-21T08:38:31.350Z,12.48
2022-10-21T08:41:31.067Z,12.85
2022-10-21T08:44:42.960Z,14.57
2022-10-21T08:47:49.438Z,13.60
2022-10-21T08:50:50.722Z,14.68
2022-10-21T08:53:52.438Z,13.90
2022-10-21T08:56:55.107Z,11.77
2022-10-21T08:59:52.053Z,10.70
2022-10-21T09:03:01.590Z,15.00
2022-10-21T09:06:32.188Z,13.70
2022-10-21T09:09:47.907Z,13.93
2022-10-21T09:13:08.584Z,9.48
2022-10-21T09:16:29.348Z,12.55
2022-10-21T09:19:53.478Z,9.05
2022-10-21T09:23:30.481Z,13.48
2022-10-21T09:26:41.425Z,12.13
2022-10-21T09:29:45.373Z,11.38
2022-10-21T09:32:49.754Z,11.25
2022-10-21T09:36:13.279Z,11.77
2022-10-21T09:39:24.284Z,10.65
2022-10-21T09:42:42.711Z,12.48
2022-10-21T09:45:45.600Z,12.48
2022-10-21T09:52:12.338Z,12.68
2022-10-21T09:55:15.419Z,14.30
2022-10-21T09:58:48.264Z,14.63
2022-10-21T10:01:46.357Z,18.80
2022-10-21T10:04:43.269Z,18.90
2022-10-21T10:07:40.075Z,17.92
2022-10-21T10:10:36.910Z,12.13
2022-10-21T10:13:35.315Z,16.50
2022-10-21T10:16:33.107Z,15.20
2022-10-21T10:19:29.992Z,34.08
2022-10-21T10:22:27.632Z,17.70
2022-10-21T10:25:30.646Z,32.63
2022-10-21T10:28:28.024Z,11.30
2022-10-21T10:31:31.483Z,13.93
2022-10-21T10:34:39.851Z,15.15
2022-10-21T10:37:37.960Z,22.58
2022-10-21T10:40:42.189Z,18.65
2022-10-21T10:43:53.232Z,14.60
2022-10-21T10:46:59.038Z,10.88
2022-10-21T10:49:55.988Z,8.43
2022-10-21T10:53:30.488Z,12.07
2022-10-21T10:56:53.416Z,12.98
2022-10-21T10:59:56.838Z,11.43
2022-10-21T11:03:23.921Z,20.05
2022-10-21T11:06:42.391Z,14.18
2022-10-21T11:09:39.414Z,17.38
2022-10-21T11:12:36.315Z,16.85
2022-10-21T11:16:16.146Z,9.52
2022-10-21T11:19:28.998Z,21.85
2022-10-21T11:22:40.708Z,7.88
2022-10-21T11:25:50.998Z,12.70
2022-10-21T11:29:16.387Z,11.90
2022-10-21T11:32:42.818Z,11.60
2022-10-21T11:35:58.127Z,67.88
2022-10-21T11:39:20.673Z,11.77
2022-10-21T11:42:43.897Z,9.85
2022-10-21T11:46:00.975Z,8.90
2022-10-21T11:49:25.111Z,6.50
2022-10-21T11:52:33.394Z,4.88
2022-10-21T11:55:42.012Z,3.40
2022-10-21T11:59:11.459Z,7.15
2022-10-21T12:02:20.414Z,4.30
2022-10-21T12:05:59.949Z,5.60
2022-10-21T12:09:14.564Z,5.07
2022-10-21T12:12:22.623Z,3.90
2022-10-21T12:15:53.372Z,5.43
2022-10-21T12:18:54.221Z,5.45
2022-10-21T12:21:51.382Z,3.80
2022-10-21T12:24:58.009Z,6.30
2022-10-21T12:28:04.502Z,4.30
2022-10-21T12:31:35.375Z,8.57
2022-10-21T12:34:33.522Z,3.47
2022-10-21T12:37:48.286Z,4.30
2022-10-21T12:40:45.272Z,4.97
2022-10-21T12:43:51.906Z,4.53
2022-10-21T12:46:52.925Z,3.83
2022-10-21T12:50:26.173Z,2.95
2022-10-21T12:54:14.838Z,4.57
2022-10-21T12:57:41.642Z,2.92
2022-10-21T13:00:38.627Z,4.93
2022-10-21T13:03:55.019Z,4.30
2022-10-21T13:06:57.287Z,3.38
2022-10-21T13:09:54.699Z,2.63
2022-10-21T13:13:32.728Z,3.92
2022-10-21T13:16:37.131Z,3.50
2022-10-21T13:19:35.169Z,2.47
2022-10-21T13:22:42.420Z,3.08
2022-10-21T13:25:39.426Z,2.53
2022-10-21T13:28:36.546Z,2.13
2022-10-21T13:31:33.846Z,3.47
2022-10-21T13:34:32.107Z,2.63
2022-10-21T13:37:51.123Z,3.45
2022-10-21T13:40:53.334Z,3.35
2022-10-21T13:44:02.097Z,3.72
2022-10-21T13:46:59.019Z,3.90
2022-10-21T13:50:19.210Z,4.20
2022-10-21T13:53:24.006Z,5.28
2022-10-21T13:56:34.295Z,4.28
2022-10-21T13:59:32.657Z,3.40
2022-10-21T14:02:29.747Z,4.20
2022-10-21T14:05:30.439Z,4.15
2022-10-21T14:11:37.604Z,3.28
2022-10-21T14:14:39.092Z,2.85
2022-10-21T14:17:42.208Z,3.38
2022-10-21T14:20:39.231Z,4.70
2022-10-21T14:23:36.144Z,4.30
2022-10-21T14:26:34.216Z,3.13
2022-10-21T14:29:34.626Z,3.13
2022-10-21T14:32:31.917Z,5.53
2022-10-21T14:35:31.130Z,2.75
2022-10-21T14:38:35.749Z,4.03
2022-10-21T14:41:44.815Z,3.35
2022-10-21T14:44:44.590Z,3.80
2022-10-21T14:47:41.527Z,3.63
2022-10-21T14:50:41.007Z,3.85
2022-10-21T14:53:49.665Z,5.80
2022-10-21T14:56:47.091Z,3.60
2022-10-21T14:59:44.021Z,4.50
2022-10-21T15:02:41.858Z,4.05
2022-10-21T15:05:48.809Z,4.40
2022-10-21T15:09:17.700Z,2.47
2022-10-21T15:12:20.730Z,4.45
2022-10-21T15:15:52.589Z,2.92
2022-10-21T15:18:53.928Z,2.33
2022-10-21T15:22:05.799Z,2.85
2022-10-21T15:25:13.747Z,2.75
2022-10-21T15:28:16.422Z,3.78
2022-10-21T15:31:28.974Z,4.75
2022-10-21T15:34:26.082Z,4.30
2022-10-21T15:37:23.030Z,3.40
2022-10-21T15:40:22.213Z,3.05
2022-10-21T15:43:19.232Z,3.20
2022-10-21T15:46:16.183Z,2.65
2022-10-21T15:49:21.336Z,4.13
2022-10-21T15:52:18.400Z,4.28
2022-10-21T15:55:15.631Z,8.27
2022-10-21T15:58:12.462Z,6.05
2022-10-21T16:01:15.906Z,6.70
2022-10-21T16:04:12.945Z,4.32
2022-10-21T16:07:33.123Z,4.43
2022-10-21T16:10:36.444Z,2.80
2022-10-21T16:13:33.279Z,3.83
2022-10-21T16:16:30.147Z,2.88
2022-10-21T16:19:27.897Z,20.52
2022-10-21T16:22:24.900Z,4.13
2022-10-21T16:25:22.706Z,5.43
2022-10-21T16:28:19.641Z,6.47
2022-10-21T16:31:16.845Z,6.22
2022-10-21T16:34:13.949Z,4.63
2022-10-21T16:37:27.376Z,4.53
2022-10-21T16:40:28.279Z,9.20
2022-10-21T16:43:25.240Z,5.05
2022-10-21T16:46:35.087Z,6.50
2022-10-21T16:49:33.256Z,6.27
2022-10-21T16:52:30.125Z,4.07
2022-10-21T16:55:27.066Z,6.57
2022-10-21T16:58:24.019Z,8.25
2022-10-21T17:01:24.481Z,7.35
2022-10-21T17:04:21.362Z,5.75
2022-10-21T17:07:18.344Z,4.57
2022-10-21T17:10:15.403Z,5.45
2022-10-21T17:13:12.924Z,7.20
2022-10-21T17:16:10.143Z,5.25
2022-10-21T17:19:08.011Z,8.10
2022-10-21T17:22:04.929Z,6.32
2022-10-21T17:25:01.762Z,10.85
2022-10-21T17:27:58.621Z,5.80
2022-10-21T17:30:56.903Z,4.47
2022-10-21T17:33:57.824Z,6.75
2022-10-21T17:36:55.153Z,6.45
2022-10-21T17:39:51.996Z,6.68
2022-10-21T17:42:49.713Z,8.32
2022-10-21T17:45:46.546Z,8.27
2022-10-21T17:48:43.485Z,6.30
2022-10-21T17:51:40.312Z,8.25
2022-10-21T17:54:37.226Z,6.55
2022-10-21T17:57:34.653Z,5.82
2022-10-21T18:00:31.489Z,5.60
2022-10-21T18:03:29.255Z,6.65
2022-10-21T18:06:26.909Z,9.00
2022-10-21T18:09:23.823Z,7.55
2022-10-21T18:12:21.129Z,6.70
2022-10-21T18:15:18.009Z,6.18
2022-10-21T18:18:14.928Z,7.75
2022-10-21T18:21:15.952Z,5.75
2022-10-21T18:24:12.933Z,5.68
2022-10-21T18:27:10.753Z,6.30
2022-10-21T18:30:09.467Z,8.23
2022-10-21T18:33:06.319Z,9.50
2022-10-21T18:36:09.437Z,6.30
2022-10-21T18:39:06.746Z,6.90
2022-10-21T18:42:03.620Z,8.38
2022-10-21T18:45:00.457Z,11.55
2022-10-21T18:47:57.346Z,7.10
2022-10-21T18:50:54.350Z,6.28
2022-10-21T18:53:53.090Z,8.35
2022-10-21T18:56:50.155Z,6.88
2022-10-21T18:59:47.004Z,7.18
2022-10-21T19:02:43.823Z,6.40
2022-10-21T19:05:42.076Z,7.63
2022-10-21T19:08:38.948Z,5.60
2022-10-21T19:11:36.043Z,7.13
2022-10-21T19:14:33.898Z,9.60
2022-10-21T19:17:30.710Z,7.68
2022-10-21T19:20:28.167Z,6.93
2022-10-21T19:23:27.218Z,8.93
2022-10-21T19:26:24.096Z,7.97
2022-10-21T19:29:23.252Z,7.47
2022-10-21T19:32:20.383Z,7.68
2022-10-21T19:35:17.293Z,5.88
2022-10-21T19:38:20.906Z,6.63
2022-10-21T19:41:23.830Z,7.03
2022-10-21T19:44:20.669Z,7.55
2022-10-21T19:47:17.492Z,5.68
2022-10-21T19:50:14.604Z,6.15
2022-10-21T19:53:11.498Z,4.55
2022-10-21T19:56:08.842Z,5.55
2022-10-21T19:59:06.723Z,7.20
2022-10-21T20:02:03.671Z,7.45
2022-10-21T20:05:00.524Z,5.80
2022-10-21T20:07:58.048Z,9.63
2022-10-21T20:11:03.974Z,9.30
2022-10-21T20:14:01.173Z,9.55
2022-10-21T20:16:57.979Z,6.60
2022-10-21T20:19:54.816Z,10.00
2022-10-21T20:22:51.630Z,9.55
2022-10-21T20:25:49.836Z,5.40
2022-10-21T20:28:46.742Z,10.52
2022-10-21T20:31:43.626Z,8.75
2022-10-21T20:34:40.499Z,8.02
2022-10-21T20:37:40.392Z,6.60
2022-10-21T20:40:37.540Z,8.65
2022-10-21T20:43:36.519Z,13.48
2022-10-21T20:46:35.898Z,12.52
2022-10-21T20:49:32.863Z,19.65
2022-10-21T20:52:29.728Z,9.43
2022-10-21T20:55:26.609Z,9.10
2022-10-21T20:58:23.546Z,11.35
2022-10-21T21:01:25.405Z,7.60
2022-10-21T21:04:25.223Z,11.05
2022-10-21T21:07:22.263Z,11.80
2022-10-21T21:10:19.212Z,11.13
2022-10-21T21:13:16.097Z,8.23
2022-10-21T21:16:17.138Z,9.30
2022-10-21T21:19:14.147Z,10.98
2022-10-21T21:22:11.025Z,8.85
2022-10-21T21:25:09.121Z,9.98
2022-10-21T21:28:06.012Z,10.02
2022-10-21T21:31:04.305Z,8.40
2022-10-21T21:34:01.547Z,7.00
2022-10-21T21:36:59.246Z,7.85
2022-10-21T21:39:56.108Z,5.53
2022-10-21T21:42:52.967Z,7.93
2022-10-21T21:45:51.182Z,7.22
2022-10-21T21:48:55.214Z,8.57
2022-10-21T21:51:53.537Z,9.18
2022-10-21T21:54:54.388Z,8.65
2022-10-21T21:57:51.486Z,11.25
2022-10-21T22:00:48.319Z,9.43
2022-10-21T22:03:47.047Z,8.68
2022-10-21T22:06:43.878Z,8.02
2022-10-21T22:09:40.741Z,8.80
2022-10-21T22:12:38.031Z,8.57
2022-10-21T22:15:47.669Z,8.75
2022-10-21T22:18:45.451Z,8.02
2022-10-21T22:21:42.263Z,7.78
2022-10-21T22:24:39.192Z,8.25
2022-10-21T22:27:36.451Z,9.13
2022-10-21T22:30:33.319Z,7.45
2022-10-21T22:33:31.391Z,9.82
2022-10-21T22:36:28.395Z,8.95
2022-10-21T22:39:25.637Z,7.28
2022-10-21T22:42:22.526Z,8.20
2022-10-21T22:45:19.333Z,8.90
2022-10-21T22:48:16.620Z,10.85
2022-10-21T22:51:13.546Z,9.48
2022-10-21T22:54:29.692Z,11.52
2022-10-21T22:57:28.630Z,7.60
2022-10-21T23:00:25.522Z,8.13
2022-10-21T23:03:22.419Z,7.25
2022-10-21T23:06:19.261Z,7.32
2022-10-21T23:09:16.362Z,7.40
2022-10-21T23:12:13.308Z,7.07
2022-10-21T23:15:10.904Z,8.35
2022-10-21T23:18:08.299Z,7.53
2022-10-21T23:21:05.776Z,9.60
2022-10-21T23:24:03.694Z,7.50
2022-10-21T23:27:01.494Z,8.77
2022-10-21T23:29:58.497Z,11.80
2022-10-21T23:32:55.501Z,12.13
2022-10-21T23:35:53.021Z,13.77
2022-10-21T23:38:53.257Z,11.55
2022-10-21T23:41:50.127Z,8.85
2022-10-21T23:44:46.999Z,15.50
2022-10-21T23:47:44.224Z,10.80
2022-10-21T23:50:43.881Z,11.32
2022-10-21T23:53:41.745Z,15.00
2022-10-21T23:56:38.677Z,16.98
2022-10-21T23:59:36.535Z,14.90
